createdAt,value
2018-07-27T00:00:08.818Z,74.80
2018-07-27T00:02:38.026Z,75.26
2018-07-27T00:05:07.357Z,75.45
2018-07-27T00:07:36.267Z,75.73
2018-07-27T00:10:06.221Z,76.56
2018-07-27T00:12:35.582Z,75.70
2018-07-27T00:15:04.984Z,76.07
2018-07-27T00:17:34.321Z,76.78
2018-07-27T00:20:03.444Z,76.29
2018-07-27T00:22:32.554Z,77.35
2018-07-27T00:25:01.658Z,77.78
2018-07-27T00:27:31.571Z,78.11
2018-07-27T00:30:00.937Z,78.92
2018-07-27T00:32:30.566Z,79.10
2018-07-27T00:34:59.686Z,78.82
2018-07-27T00:37:28.810Z,79.54
2018-07-27T00:39:57.919Z,79.54
2018-07-27T00:42:26.997Z,80.34
2018-07-27T00:44:56.158Z,79.27
2018-07-27T00:47:25.578Z,79.08
2018-07-27T00:49:54.756Z,79.68
2018-07-27T00:52:25.069Z,80.55
2018-07-27T00:54:54.582Z,79.78
2018-07-27T00:57:24.064Z,80.55
2018-07-27T00:59:53.650Z,80.93
2018-07-27T01:02:22.840Z,80.59
2018-07-27T01:04:51.978Z,80.94
2018-07-27T01:07:21.186Z,80.59
2018-07-27T01:09:50.461Z,81.52
2018-07-27T01:12:19.610Z,81.82
2018-07-27T01:14:48.904Z,82.91
2018-07-27T01:17:19.086Z,82.47
2018-07-27T01:19:48.470Z,82.78
2018-07-27T01:22:17.774Z,82.81
2018-07-27T01:24:47.374Z,83.37
2018-07-27T01:27:17.001Z,84.15
2018-07-27T01:29:46.273Z,84.34
2018-07-27T01:32:15.430Z,84.74
2018-07-27T01:34:45.113Z,85.46
2018-07-27T01:37:14.824Z,84.38
2018-07-27T01:39:44.039Z,84.80
2018-07-27T01:42:13.388Z,83.79
2018-07-27T01:44:42.654Z,84.46
2018-07-27T01:47:11.796Z,84.42
2018-07-27T01:49:41.117Z,85.11
2018-07-27T01:52:10.256Z,85.08
2018-07-27T01:54:39.490Z,84.78
2018-07-27T01:57:08.802Z,86.42
2018-07-27T01:59:40.314Z,86.73
2018-07-27T02:02:09.454Z,86.69
2018-07-27T02:04:38.614Z,86.29
2018-07-27T02:07:07.814Z,86.62
2018-07-27T02:09:36.713Z,86.78
2018-07-27T02:12:06.346Z,85.74
2018-07-27T02:14:36.642Z,86.35
2018-07-27T02:17:06.480Z,86.79
2018-07-27T02:19:35.693Z,86.50
2018-07-27T02:22:05.929Z,85.91
2018-07-27T02:24:35.114Z,85.91
2018-07-27T02:27:04.271Z,86.68
2018-07-27T02:29:33.610Z,88.64
2018-07-27T02:32:02.767Z,88.86
2018-07-27T02:34:31.903Z,89.60
2018-07-27T02:37:01.026Z,89.24
2018-07-27T02:39:30.172Z,89.51
2018-07-27T02:41:59.303Z,89.56
2018-07-27T02:44:28.827Z,87.44
2018-07-27T02:46:57.972Z,87.12
2018-07-27T02:49:27.086Z,86.93
2018-07-27T02:51:56.372Z,87.53
2018-07-27T02:54:26.346Z,85.68
2018-07-27T02:56:55.682Z,86.33
2018-07-27T02:59:24.978Z,86.87
2018-07-27T03:01:54.278Z,87.55
2018-07-27T03:04:23.603Z,87.73
2018-07-27T03:06:53.334Z,88.83
2018-07-27T03:09:22.477Z,90.19
2018-07-27T03:11:51.646Z,90.03
2018-07-27T03:14:20.795Z,89.81
2018-07-27T03:16:50.569Z,89.79
2018-07-27T03:19:19.695Z,91.09
2018-07-27T03:21:49.550Z,92.03
2018-07-27T03:24:18.719Z,92.07
2018-07-27T03:26:47.871Z,90.00
2018-07-27T03:29:17.438Z,89.59
2018-07-27T03:31:46.605Z,90.03
2018-07-27T03:34:15.734Z,90.80
2018-07-27T03:36:44.838Z,91.44
2018-07-27T03:39:13.990Z,91.40
2018-07-27T03:41:43.105Z,91.69
2018-07-27T03:44:12.233Z,88.59
2018-07-27T03:46:41.378Z,88.76
2018-07-27T03:49:10.530Z,88.99
2018-07-27T03:51:39.661Z,89.29
2018-07-27T03:54:09.213Z,89.95
2018-07-27T03:56:38.342Z,90.03
2018-07-27T03:59:07.457Z,88.53
2018-07-27T04:01:36.631Z,88.90
2018-07-27T04:04:05.822Z,89.06
2018-07-27T04:06:34.987Z,89.47
2018-07-27T04:09:06.094Z,88.97
2018-07-27T04:11:35.210Z,88.06
2018-07-27T04:14:04.438Z,88.15
2018-07-27T04:16:34.682Z,86.54
2018-07-27T04:19:04.512Z,85.77
2018-07-27T04:21:33.875Z,85.89
2018-07-27T04:24:03.622Z,86.37
2018-07-27T04:26:33.706Z,85.75
2018-07-27T04:29:02.863Z,85.79
2018-07-27T04:31:32.057Z,84.41
2018-07-27T04:34:01.206Z,84.39
2018-07-27T04:36:30.401Z,83.78
2018-07-27T04:38:59.789Z,82.69
2018-07-27T04:41:29.698Z,81.63
2018-07-27T04:43:59.129Z,79.04
2018-07-27T04:46:28.548Z,76.05
2018-07-27T04:48:59.513Z,74.29
2018-07-27T04:51:28.522Z,72.43
2018-07-27T04:53:57.645Z,69.29
2018-07-27T04:56:26.793Z,66.31
2018-07-27T04:58:55.890Z,64.19
2018-07-27T05:01:26.593Z,62.74
2018-07-27T05:03:56.521Z,63.20
2018-07-27T05:06:29.706Z,63.41
2018-07-27T05:09:04.009Z,62.42
2018-07-27T05:11:33.529Z,62.14
2018-07-27T05:14:02.665Z,63.31
2018-07-27T05:16:32.047Z,62.48
2018-07-27T05:19:01.658Z,62.13
2018-07-27T05:21:31.051Z,64.38
2018-07-27T05:24:04.564Z,63.43
2018-07-27T05:26:37.858Z,62.44
2018-07-27T05:29:07.186Z,61.48
2018-07-27T05:31:37.022Z,58.47
2018-07-27T05:34:06.694Z,56.07
2018-07-27T05:36:36.066Z,56.80
2018-07-27T05:39:09.663Z,56.35
2018-07-27T05:41:40.074Z,57.09
2018-07-27T05:44:10.749Z,55.72
2018-07-27T05:46:40.178Z,53.16
2018-07-27T05:49:09.713Z,53.47
2018-07-27T05:51:39.560Z,51.18
2018-07-27T05:54:08.923Z,51.43
2018-07-27T05:56:38.604Z,50.44
2018-07-27T05:59:07.778Z,50.72
2018-07-27T06:01:37.689Z,51.77
2018-07-27T06:04:07.413Z,52.21
2018-07-27T06:06:37.431Z,51.23
2018-07-27T06:09:10.581Z,52.27
2018-07-27T06:11:40.189Z,53.02
2018-07-27T06:14:09.704Z,50.49
2018-07-27T06:16:39.553Z,47.40
2018-07-27T06:19:08.988Z,47.13
2018-07-27T06:21:38.146Z,46.29
2018-07-27T06:24:07.796Z,44.74
2018-07-27T06:26:36.829Z,43.03
2018-07-27T06:29:05.991Z,42.73
2018-07-27T06:31:35.218Z,43.32
2018-07-27T06:34:04.354Z,43.73
2018-07-27T06:36:33.454Z,43.39
2018-07-27T06:39:02.633Z,40.38
2018-07-27T06:41:32.214Z,39.03
2018-07-27T06:44:01.332Z,41.47
2018-07-27T06:46:30.469Z,40.24
2018-07-27T06:48:59.785Z,39.85
2018-07-27T06:51:29.338Z,39.41
2018-07-27T06:53:58.485Z,39.89
2018-07-27T06:56:27.626Z,39.48
2018-07-27T06:58:56.734Z,37.86
2018-07-27T07:01:27.438Z,36.63
2018-07-27T07:03:56.542Z,36.43
2018-07-27T07:06:25.666Z,33.68
2018-07-27T07:08:54.629Z,31.81
2018-07-27T07:11:23.775Z,32.30
2018-07-27T07:13:52.883Z,33.73
2018-07-27T07:16:22.799Z,33.45
2018-07-27T07:18:51.906Z,30.20
2018-07-27T07:21:21.017Z,29.09
2018-07-27T07:23:50.145Z,28.57
2018-07-27T07:26:19.434Z,31.10
2018-07-27T07:28:48.541Z,31.72
2018-07-27T07:31:17.836Z,30.85
2018-07-27T07:33:46.982Z,30.43
2018-07-27T07:36:16.107Z,30.07
2018-07-27T07:38:45.319Z,29.28
2018-07-27T07:41:14.536Z,29.66
2018-07-27T07:43:43.690Z,29.25
2018-07-27T07:46:12.818Z,29.80
2018-07-27T07:48:41.939Z,29.30
2018-07-27T07:51:11.169Z,26.86
2018-07-27T07:53:40.900Z,26.81
2018-07-27T07:56:09.886Z,27.74
2018-07-27T07:58:39.104Z,27.13
2018-07-27T08:01:08.179Z,25.72
2018-07-27T08:03:37.281Z,25.63
2018-07-27T08:06:06.922Z,24.61
2018-07-27T08:08:36.080Z,25.74
2018-07-27T08:11:05.272Z,24.44
2018-07-27T08:13:34.445Z,22.94
2018-07-27T08:16:03.588Z,23.15
2018-07-27T08:18:34.351Z,24.64
2018-07-27T08:21:03.574Z,24.43
2018-07-27T08:23:32.774Z,23.36
2018-07-27T08:27:06.970Z,22.91
2018-07-27T08:29:40.080Z,22.53
2018-07-27T08:32:09.312Z,23.18
2018-07-27T08:34:38.614Z,21.58
2018-07-27T08:37:08.854Z,21.51
2018-07-27T08:39:39.247Z,23.00
2018-07-27T08:42:08.850Z,21.53
2018-07-27T08:44:39.355Z,20.69
2018-07-27T08:47:08.862Z,19.81
2018-07-27T08:49:37.961Z,19.67
2018-07-27T08:52:07.810Z,19.31
2018-07-27T08:54:38.333Z,19.84
2018-07-27T08:57:07.545Z,21.44
2018-07-27T08:59:36.674Z,19.03
2018-07-27T09:02:05.926Z,18.36
2018-07-27T09:04:35.075Z,20.87
2018-07-27T09:07:04.185Z,19.66
2018-07-27T09:09:33.298Z,18.86
2018-07-27T09:12:02.246Z,17.71
2018-07-27T09:14:32.998Z,18.79
2018-07-27T09:17:02.186Z,18.11
2018-07-27T09:19:31.287Z,17.48
2018-07-27T09:22:00.409Z,17.89
2018-07-27T09:24:30.116Z,16.94
2018-07-27T09:26:59.375Z,17.29
2018-07-27T09:29:28.531Z,17.79
2018-07-27T09:31:57.673Z,17.98
2018-07-27T09:34:26.849Z,17.80
2018-07-27T09:36:56.550Z,19.44
2018-07-27T09:39:25.674Z,18.16
2018-07-27T09:41:54.803Z,18.16
2018-07-27T09:44:23.929Z,17.31
2018-07-27T09:46:53.541Z,19.33
2018-07-27T09:49:22.750Z,19.17
2018-07-27T09:51:51.898Z,18.20
2018-07-27T09:54:22.758Z,18.29
2018-07-27T09:56:52.174Z,20.63
2018-07-27T09:59:21.402Z,19.01
2018-07-27T10:01:50.716Z,18.54
2018-07-27T10:04:20.238Z,19.96
2018-07-27T10:06:49.537Z,17.10
2018-07-27T10:09:18.773Z,17.48
2018-07-27T10:11:47.917Z,15.01
2018-07-27T10:14:17.088Z,16.13
2018-07-27T10:16:46.229Z,17.89
2018-07-27T10:19:15.426Z,18.20
2018-07-27T10:21:44.573Z,18.29
2018-07-27T10:24:13.992Z,19.09
2018-07-27T10:26:43.565Z,16.87
2018-07-27T10:29:13.117Z,16.37
2018-07-27T10:31:42.333Z,15.38
2018-07-27T10:34:11.470Z,14.88
2018-07-27T10:36:40.601Z,15.35
2018-07-27T10:39:11.538Z,17.59
2018-07-27T10:41:40.786Z,16.49
2018-07-27T10:44:10.227Z,15.57
2018-07-27T10:46:39.377Z,15.79
2018-07-27T10:49:08.546Z,13.86
2018-07-27T10:51:39.281Z,12.35
2018-07-27T10:54:08.936Z,13.59
2018-07-27T10:56:38.109Z,13.14
2018-07-27T10:59:07.652Z,12.27
2018-07-27T11:01:37.174Z,11.85
2018-07-27T11:04:06.322Z,11.08
2018-07-27T11:06:35.490Z,13.40
2018-07-27T11:09:06.271Z,13.53
2018-07-27T11:11:35.441Z,13.83
2018-07-27T11:14:05.725Z,14.12
2018-07-27T11:16:35.251Z,14.80
2018-07-27T11:19:04.396Z,13.51
2018-07-27T11:21:33.515Z,16.03
2018-07-27T11:24:02.691Z,13.84
2018-07-27T11:26:32.235Z,14.05
2018-07-27T11:29:01.391Z,13.10
2018-07-27T11:31:30.634Z,13.52
2018-07-27T11:33:59.755Z,13.45
2018-07-27T11:36:28.890Z,14.88
2018-07-27T11:38:58.050Z,15.43
2018-07-27T11:41:27.156Z,14.44
2018-07-27T11:43:56.314Z,14.12
2018-07-27T11:46:25.458Z,17.82
2018-07-27T11:48:54.558Z,20.12
2018-07-27T11:51:23.686Z,21.06
2018-07-27T11:53:52.925Z,19.42
2018-07-27T11:56:22.076Z,16.66
2018-07-27T11:58:51.192Z,16.78
2018-07-27T12:01:20.550Z,15.13
2018-07-27T12:03:50.085Z,15.46
2018-07-27T12:06:19.350Z,15.43
2018-07-27T12:08:48.470Z,14.36
2018-07-27T12:11:17.578Z,15.13
2018-07-27T12:13:46.795Z,17.86
2018-07-27T12:16:15.825Z,20.39
2018-07-27T12:18:44.939Z,19.01
2018-07-27T12:21:14.266Z,20.04
2018-07-27T12:23:43.182Z,19.96
2018-07-27T12:26:12.342Z,20.01
2018-07-27T12:28:41.433Z,18.68
2018-07-27T12:31:11.133Z,19.27
2018-07-27T12:33:40.287Z,18.41
2018-07-27T12:36:09.413Z,18.08
2018-07-27T12:38:38.526Z,19.00
2018-07-27T12:41:07.684Z,16.71
2018-07-27T12:43:36.805Z,15.84
2018-07-27T12:46:06.006Z,16.33
2018-07-27T12:48:35.159Z,14.55
2018-07-27T12:51:04.283Z,14.13
2018-07-27T12:53:33.427Z,15.92
2018-07-27T12:56:02.670Z,19.41
2018-07-27T12:58:31.784Z,21.31
2018-07-27T13:01:00.927Z,22.46
2018-07-27T13:03:30.038Z,23.18
2018-07-27T13:05:59.339Z,23.47
2018-07-27T13:08:28.746Z,23.35
2018-07-27T13:10:57.894Z,24.95
2018-07-27T13:13:27.035Z,25.72
2018-07-27T13:15:56.212Z,26.45
2018-07-27T13:18:25.343Z,24.92
2018-07-27T13:20:55.702Z,24.29
2018-07-27T13:23:25.323Z,24.68
2018-07-27T13:28:42.068Z,26.18
2018-07-27T13:31:12.203Z,25.88
2018-07-27T13:34:58.648Z,25.35
2018-07-27T13:37:28.987Z,24.79
2018-07-27T13:39:59.338Z,24.12
2018-07-27T13:42:29.649Z,22.27
2018-07-27T13:44:58.829Z,20.10
2018-07-27T13:47:27.986Z,17.96
2018-07-27T13:49:57.099Z,17.11
2018-07-27T13:52:26.711Z,17.63
2018-07-27T13:54:55.894Z,20.38
2018-07-27T13:57:25.083Z,19.09
2018-07-27T13:59:54.202Z,17.50
2018-07-27T14:02:23.326Z,18.12
2018-07-27T14:04:52.438Z,18.32
2018-07-27T14:07:21.610Z,17.31
2018-07-27T14:09:50.774Z,17.50
2018-07-27T14:12:19.866Z,16.58
2018-07-27T14:14:49.026Z,17.18
2018-07-27T14:17:18.149Z,19.22
2018-07-27T14:19:47.258Z,17.52
2018-07-27T14:22:17.154Z,17.78
2018-07-27T14:24:46.277Z,18.36
2018-07-27T14:27:15.443Z,17.11
2018-07-27T14:29:44.914Z,17.65
2018-07-27T14:32:14.047Z,19.96
2018-07-27T14:34:43.596Z,18.95
2018-07-27T14:37:12.869Z,17.37
2018-07-27T14:39:42.466Z,18.80
2018-07-27T14:42:11.630Z,19.57
2018-07-27T14:44:40.951Z,18.60
2018-07-27T14:47:10.303Z,17.33
2018-07-27T14:49:39.657Z,17.45
2018-07-27T14:52:09.100Z,17.76
2018-07-27T14:54:38.208Z,16.42
2018-07-27T14:57:07.330Z,17.39
2018-07-27T14:59:36.714Z,17.48
2018-07-27T15:02:06.007Z,17.55
2018-07-27T15:04:35.105Z,18.33
2018-07-27T15:07:04.235Z,18.33
2018-07-27T15:09:33.358Z,17.87
2018-07-27T15:12:02.479Z,17.95
2018-07-27T15:14:31.602Z,17.43
2018-07-27T15:17:00.765Z,17.68
2018-07-27T15:19:29.890Z,20.33
2018-07-27T15:21:59.019Z,23.04
2018-07-27T15:24:28.228Z,23.51
2018-07-27T15:26:57.326Z,22.36
2018-07-27T15:29:26.492Z,20.47
2018-07-27T15:31:55.651Z,19.99
2018-07-27T15:34:26.345Z,19.88
2018-07-27T15:36:56.217Z,18.80
2018-07-27T15:39:26.422Z,20.43
2018-07-27T15:41:55.606Z,20.59
2018-07-27T15:44:24.806Z,20.00
2018-07-27T15:46:56.282Z,21.08
2018-07-27T15:49:25.472Z,20.64
2018-07-27T15:51:54.717Z,19.78
2018-07-27T15:54:24.051Z,19.64
2018-07-27T15:56:53.314Z,18.39
2018-07-27T15:59:22.558Z,21.45
2018-07-27T16:01:51.711Z,22.26
2018-07-27T16:04:20.902Z,21.56
2018-07-27T16:06:50.010Z,21.14
2018-07-27T16:09:19.352Z,21.21
2018-07-27T16:11:48.738Z,21.13
2018-07-27T16:14:18.377Z,20.21
2018-07-27T16:16:47.493Z,20.18
2018-07-27T16:19:16.656Z,19.84
2018-07-27T16:21:45.776Z,20.89
2018-07-27T16:24:15.157Z,21.23
2018-07-27T16:26:44.325Z,20.57
2018-07-27T16:29:14.307Z,21.45
2018-07-27T16:31:44.059Z,21.21
2018-07-27T16:34:15.102Z,21.19
2018-07-27T16:36:45.235Z,21.78
2018-07-27T16:39:14.658Z,22.42
2018-07-27T16:41:44.676Z,22.81
2018-07-27T16:44:14.797Z,23.10
2018-07-27T16:46:44.514Z,23.62
2018-07-27T16:49:13.861Z,24.25
2018-07-27T16:51:43.502Z,24.29
2018-07-27T16:54:13.014Z,24.51
2018-07-27T16:56:42.309Z,23.99
2018-07-27T16:59:11.593Z,24.68
2018-07-27T17:01:40.769Z,23.98
2018-07-27T17:04:09.888Z,23.42
2018-07-27T17:06:39.221Z,23.62
2018-07-27T17:09:09.130Z,23.75
2018-07-27T17:11:38.242Z,24.54
2018-07-27T17:14:07.424Z,25.61
2018-07-27T17:16:36.534Z,25.83
2018-07-27T17:19:05.742Z,26.09
2018-07-27T17:21:35.078Z,25.97
2018-07-27T17:24:03.504Z,26.02
2018-07-27T17:26:32.881Z,26.61
2018-07-27T17:29:02.363Z,26.58
2018-07-27T17:31:30.997Z,27.19
2018-07-27T17:34:00.222Z,26.63
2018-07-27T17:36:29.498Z,26.50
2018-07-27T17:38:58.763Z,27.07
2018-07-27T17:41:28.138Z,27.10
2018-07-27T17:43:58.571Z,27.02
2018-07-27T17:46:26.883Z,27.09
2018-07-27T17:48:56.162Z,27.80
2018-07-27T17:51:25.658Z,27.59
2018-07-27T17:53:55.109Z,28.81
2018-07-27T17:56:23.913Z,28.85
2018-07-27T17:58:53.330Z,28.23
2018-07-27T18:01:25.303Z,29.24
2018-07-27T18:03:55.152Z,29.61
2018-07-27T18:06:24.822Z,29.08
2018-07-27T18:08:54.762Z,28.72
2018-07-27T18:11:24.266Z,30.37
2018-07-27T18:13:53.890Z,29.92
2018-07-27T18:16:23.362Z,30.56
2018-07-27T18:18:53.419Z,30.90
2018-07-27T18:21:24.441Z,31.37
2018-07-27T18:23:54.116Z,32.33
2018-07-27T18:26:23.875Z,33.75
2018-07-27T18:28:52.990Z,35.19
2018-07-27T18:31:23.494Z,33.73
2018-07-27T18:33:52.915Z,33.33
2018-07-27T18:36:24.374Z,35.18
2018-07-27T18:38:53.275Z,35.77
2018-07-27T18:41:22.719Z,37.06
2018-07-27T18:43:52.434Z,37.97
2018-07-27T18:46:22.745Z,37.96
2018-07-27T18:48:51.949Z,38.98
2018-07-27T18:51:21.773Z,39.89
2018-07-27T18:53:51.206Z,40.35
2018-07-27T18:56:20.664Z,40.50
2018-07-27T18:58:50.516Z,41.34
2018-07-27T19:01:21.189Z,41.18
2018-07-27T19:03:50.326Z,41.63
2018-07-27T19:06:19.542Z,41.79
2018-07-27T19:08:50.162Z,42.16
2018-07-27T19:11:19.911Z,42.11
2018-07-27T19:13:51.454Z,42.62
2018-07-27T19:16:20.198Z,44.25
2018-07-27T19:18:49.326Z,43.59
2018-07-27T19:21:18.430Z,44.10
2018-07-27T19:23:47.218Z,44.43
2018-07-27T19:26:16.326Z,46.33
2018-07-27T19:28:45.690Z,45.24
2018-07-27T19:31:15.024Z,45.74
2018-07-27T19:33:44.297Z,45.11
2018-07-27T19:36:14.168Z,46.25
2018-07-27T19:38:43.311Z,47.31
2018-07-27T19:41:12.090Z,46.26
2018-07-27T19:43:41.310Z,46.85
2018-07-27T19:46:10.364Z,46.87
2018-07-27T19:48:39.781Z,47.56
2018-07-27T19:51:08.929Z,46.98
2018-07-27T19:53:38.100Z,46.59
2018-07-27T19:56:07.353Z,47.61
2018-07-27T19:58:36.489Z,48.11
2018-07-27T20:01:05.635Z,47.89
2018-07-27T20:03:34.942Z,48.04
2018-07-27T20:06:04.134Z,48.66
2018-07-27T20:08:33.260Z,48.38
2018-07-27T20:11:02.384Z,49.73
2018-07-27T20:13:31.505Z,49.44
2018-07-27T20:16:00.634Z,49.40
2018-07-27T20:18:29.760Z,49.79
2018-07-27T20:20:58.938Z,49.99
2018-07-27T20:23:28.052Z,49.89
2018-07-27T20:25:57.166Z,50.15
2018-07-27T20:28:26.312Z,50.25
2018-07-27T20:30:55.430Z,50.56
2018-07-27T20:33:24.614Z,50.88
2018-07-27T20:35:53.910Z,51.37
2018-07-27T20:38:23.034Z,51.08
2018-07-27T20:40:52.180Z,51.74
2018-07-27T20:43:21.309Z,51.76
2018-07-27T20:45:50.589Z,53.03
2018-07-27T20:48:19.988Z,52.54
2018-07-27T20:50:49.251Z,52.53
2018-07-27T20:53:18.735Z,53.29
2018-07-27T20:55:48.102Z,52.77
2018-07-27T20:58:23.318Z,53.08
2018-07-27T21:00:52.610Z,52.52
2018-07-27T21:03:22.570Z,52.97
2018-07-27T21:05:51.390Z,53.53
2018-07-27T21:08:20.755Z,53.78
2018-07-27T21:10:50.062Z,53.41
2018-07-27T21:13:23.006Z,55.09
2018-07-27T21:15:52.396Z,54.25
2018-07-27T21:18:21.502Z,53.79
2018-07-27T21:20:51.039Z,55.41
2018-07-27T21:23:20.945Z,55.32
2018-07-27T21:25:50.258Z,55.54
2018-07-27T21:28:19.493Z,56.40
2018-07-27T21:30:49.135Z,56.08
2018-07-27T21:33:18.470Z,57.70
2018-07-27T21:35:48.042Z,56.68
2018-07-27T21:38:17.094Z,57.80
2018-07-27T21:40:46.237Z,57.75
2018-07-27T21:43:16.248Z,57.43
2018-07-27T21:45:45.447Z,58.62
2018-07-27T21:48:14.688Z,59.59
2018-07-27T21:50:43.730Z,59.55
2018-07-27T21:53:12.866Z,60.63
2018-07-27T21:55:42.054Z,60.23
2018-07-27T21:58:11.830Z,61.09
2018-07-27T22:00:41.515Z,61.08
2018-07-27T22:03:10.910Z,60.86
2018-07-27T22:05:40.025Z,61.68
2018-07-27T22:08:09.151Z,62.09
2018-07-27T22:10:38.362Z,62.02
2018-07-27T22:13:07.884Z,63.09
2018-07-27T22:15:37.250Z,63.11
2018-07-27T22:18:06.761Z,63.56
2018-07-27T22:20:37.721Z,64.10
2018-07-27T22:23:07.055Z,65.27
2018-07-27T22:25:36.390Z,61.17
2018-07-27T22:28:05.898Z,60.25
2018-07-27T22:30:35.674Z,61.05
2018-07-27T22:33:05.062Z,60.35
2018-07-27T22:35:34.670Z,59.92
2018-07-27T22:38:04.086Z,60.48
2018-07-27T22:40:34.461Z,60.15
2018-07-27T22:43:03.610Z,60.16
2018-07-27T22:45:32.509Z,61.26
2018-07-27T22:48:01.678Z,60.64
2018-07-27T22:50:30.870Z,60.72
2018-07-27T22:52:59.993Z,60.87
2018-07-27T22:55:29.030Z,60.78
2018-07-27T22:58:00.583Z,60.82
2018-07-27T23:00:29.707Z,60.49
2018-07-27T23:02:59.070Z,59.82
2018-07-27T23:05:28.119Z,60.33
2018-07-27T23:07:57.251Z,60.31
2018-07-27T23:10:26.889Z,60.17
2018-07-27T23:12:55.992Z,59.37
2018-07-27T23:15:25.818Z,60.56
2018-07-27T23:17:54.937Z,59.06
2018-07-27T23:20:24.075Z,58.88
2018-07-27T23:22:53.182Z,60.09
2018-07-27T23:27:57.948Z,61.17
2018-07-27T23:30:27.046Z,61.84
2018-07-27T23:32:56.186Z,63.58
2018-07-27T23:35:25.723Z,63.09
2018-07-27T23:37:55.096Z,64.43
2018-07-27T23:40:24.182Z,64.25
2018-07-27T23:42:54.114Z,63.52
2018-07-27T23:45:23.235Z,63.91
2018-07-27T23:47:52.345Z,64.06
2018-07-27T23:50:21.840Z,64.91
2018-07-27T23:52:54.017Z,64.37
2018-07-27T23:55:23.758Z,65.68
2018-07-27T23:57:53.638Z,66.16
